Time;durP1;ratioP1;P1;durP2;ratioP2;P2;SDS_P1;SDS_P2;PMS_P1;PMS_P2;Temp;Humidity;BMP_temperature;BMP_pressure;BME280_temperature;BME280_humidity;BME280_pressure;Samples;Min_cycle;Max_cycle;Signal;HPM_P1;HPM_P2
2022/12/10 00:02:45;;;;;;;22.25;14.80;;;;;;;-1.17;98.99;100133.47;5007616;28;20164;-62
2022/12/10 00:27:30;;;;;;;24.98;15.77;;;;;;;-1.18;97.73;100127.44;5008443;28;20048;-63
2022/12/10 00:38:42;;;;;;;28.35;17.38;;;;;;;-1.22;98.40;100141.28;5007864;28;20045;-63
2022/12/10 00:45:28;;;;;;;27.33;16.27;;;;;;;-1.14;98.75;100136.84;5005768;28;20052;-64
2022/12/10 01:01:22;;;;;;;26.55;16.25;;;;;;;-1.21;98.23;100137.84;5008190;28;20052;-64
2022/12/10 01:16:44;;;;;;;25.10;15.57;;;;;;;-1.20;98.18;100149.03;5007051;28;20494;-62
2022/12/10 01:45:40;;;;;;;28.08;17.02;;;;;;;-1.21;97.17;100137.84;5000318;28;20040;-62
2022/12/10 02:00:44;;;;;;;23.88;15.15;;;;;;;-1.28;97.28;100147.44;5003576;28;20177;-66
2022/12/10 02:20:53;;;;;;;28.17;17.50;;;;;;;-1.48;97.15;100128.88;5004509;28;20045;-64
2022/12/10 02:48:14;;;;;;;26.13;18.15;;;;;;;-1.60;96.77;100129.94;4997045;28;20198;-64
2022/12/10 03:13:27;;;;;;;33.97;20.73;;;;;;;-1.94;98.04;100139.94;5009728;28;20037;-63
2022/12/10 03:34:23;;;;;;;29.45;19.67;;;;;;;-1.78;97.32;100138.00;4998317;28;20359;-62
2022/12/10 03:41:14;;;;;;;32.95;19.65;;;;;;;-1.82;98.07;100131.16;4997924;28;20267;-64
2022/12/10 04:31:42;;;;;;;29.55;17.95;;;;;;;-1.56;96.63;100128.16;4990369;28;20049;-63
2022/12/10 04:42:53;;;;;;;27.33;18.55;;;;;;;-1.61;96.73;100138.56;4989863;28;20041;-63
2022/12/10 04:45:20;;;;;;;27.95;18.15;;;;;;;-1.59;96.74;100147.13;4993429;28;20092;-63
2022/12/10 04:53:02;;;;;;;28.25;17.77;;;;;;;-1.57;96.78;100150.53;4995726;28;20033;-63
2022/12/10 05:04:15;;;;;;;26.23;17.77;;;;;;;-1.55;96.74;100153.09;4997465;28;20181;-62
2022/12/10 05:06:43;;;;;;;32.28;18.92;;;;;;;-1.54;96.69;100147.88;4988494;28;20057;-63
2022/12/10 05:40:51;;;;;;;24.90;16.90;;;;;;;-1.29;96.03;100165.53;5005250;28;20065;-63
2022/12/10 06:22:39;;;;;;;21.63;15.52;;;;;;;-1.07;95.49;100174.59;4992146;28;20481;-65
2022/12/10 07:47:04;;;;;;;18.00;11.55;;;;;;;-1.02;93.66;100237.38;5007271;28;20049;-63
2022/12/10 08:12:19;;;;;;;18.73;13.15;;;;;;;-0.95;93.61;100245.84;5009451;28;20144;-63
2022/12/10 09:07:16;;;;;;;18.98;13.25;;;;;;;-0.78;94.13;100281.72;5004817;28;20066;-64
2022/12/10 10:22:32;;;;;;;17.60;12.93;;;;;;;-0.45;94.17;100285.44;4986004;28;20134;-63
2022/12/10 10:29:26;;;;;;;19.55;14.32;;;;;;;-0.45;93.93;100289.75;5043991;22;20048;-76
2022/12/10 11:44:09;;;;;;;19.70;13.48;;;;;;;-0.12;94.07;100247.69;4998188;28;20114;-77
2022/12/10 11:46:52;;;;;;;19.70;13.75;;;;;;;-0.09;94.39;100251.94;4977536;28;20062;-76
2022/12/10 11:49:37;;;;;;;20.45;14.10;;;;;;;-0.02;94.13;100244.00;4996105;28;20467;-76
2022/12/10 11:52:13;;;;;;;22.35;14.57;;;;;;;-0.12;93.39;100246.84;4977042;28;20058;-77
2022/12/10 11:54:52;;;;;;;21.05;14.43;;;;;;;-0.21;92.50;100247.03;4978299;28;20621;-76
2022/12/10 11:57:40;;;;;;;19.90;13.90;;;;;;;-0.24;93.26;100245.34;4995396;28;20498;-76
2022/12/10 12:00:11;;;;;;;21.63;15.40;;;;;;;-0.30;93.26;100243.75;5013979;28;20053;-77
2022/12/10 12:03:23;;;;;;;18.20;13.65;;;;;;;-0.24;94.36;100249.66;5017792;28;20121;-76
2022/12/10 12:06:02;;;;;;;21.17;14.00;;;;;;;-0.15;94.56;100252.91;4938397;29;20060;-77
2022/12/10 12:09:07;;;;;;;19.95;14.52;;;;;;;-0.10;94.61;100253.66;4913479;29;20052;-77
2022/12/10 12:12:09;;;;;;;19.38;14.13;;;;;;;-0.07;94.10;100256.19;4978543;28;20096;-76
2022/12/10 12:14:44;;;;;;;20.23;13.65;;;;;;;-0.16;94.18;100256.41;4999959;28;20153;-77
2022/12/10 12:17:39;;;;;;;18.42;13.05;;;;;;;-0.12;94.20;100258.03;5016496;28;20054;-77
2022/12/10 12:20:30;;;;;;;17.42;13.23;;;;;;;-0.14;93.71;100262.38;4981127;28;20089;-77
2022/12/10 12:23:05;;;;;;;17.73;13.48;;;;;;;-0.15;94.36;100260.69;4992480;28;20144;-76
2022/12/10 12:25:37;;;;;;;17.33;13.43;;;;;;;-0.08;94.22;100258.81;5016179;28;20110;-78
2022/12/10 12:28:24;;;;;;;17.13;13.68;;;;;;;-0.04;94.46;100263.06;4981127;28;20136;-76
2022/12/10 12:31:02;;;;;;;17.63;13.25;;;;;;;-0.06;93.73;100267.41;4980917;28;20051;-76
2022/12/10 12:33:41;;;;;;;17.60;12.75;;;;;;;-0.01;93.86;100266.41;4996394;28;20057;-77
2022/12/10 12:36:16;;;;;;;17.25;12.52;;;;;;;0.01;93.65;100258.63;4996328;28;20118;-76
2022/12/10 12:39:06;;;;;;;17.08;12.05;;;;;;;0.07;93.41;100268.00;4979496;28;20112;-78
2022/12/10 12:41:50;;;;;;;19.83;13.98;;;;;;;0.09;93.41;100261.03;4987795;28;20056;-76
2022/12/10 12:44:32;;;;;;;18.85;13.45;;;;;;;0.11;93.65;100277.41;4987319;28;20065;-75
2022/12/10 12:47:16;;;;;;;18.58;12.43;;;;;;;0.02;92.94;100267.25;5022625;28;20493;-76
2022/12/10 12:49:43;;;;;;;17.45;12.90;;;;;;;0.01;93.44;100262.97;4985224;28;20053;-78
2022/12/10 15:05:24;;;;;;;27.50;15.88;;;;;;;-0.16;92.93;100331.41;5017152;28;20147;-77
2022/12/10 15:08:01;;;;;;;30.52;16.92;;;;;;;-0.17;93.17;100328.88;5027581;28;20057;-77
2022/12/10 15:10:38;;;;;;;30.15;16.13;;;;;;;-0.17;93.47;100331.47;5006590;28;20049;-76
2022/12/10 15:13:07;;;;;;;31.45;16.30;;;;;;;-0.24;93.19;100330.72;5006608;28;20054;-76
2022/12/10 15:15:36;;;;;;;28.77;15.82;;;;;;;-0.28;93.79;100335.09;5002776;28;20054;-75
2022/12/10 15:18:32;;;;;;;29.80;15.48;;;;;;;-0.24;94.09;100329.88;5018307;28;20037;-76
2022/12/10 15:21:13;;;;;;;27.70;15.88;;;;;;;-0.24;93.73;100329.88;5030055;28;20076;-78
2022/12/10 15:23:42;;;;;;;35.88;17.20;;;;;;;-0.22;94.08;100334.13;5020032;28;20053;-77
2022/12/10 15:26:26;;;;;;;35.25;16.98;;;;;;;-0.21;93.56;100327.22;5024122;28;20049;-77
2022/12/10 15:29:22;;;;;;;38.97;16.98;;;;;;;-0.19;94.12;100331.47;5002253;28;20612;-79
2022/12/10 15:32:04;;;;;;;38.95;17.95;;;;;;;-0.18;93.65;100335.78;5019538;28;20085;-77
2022/12/10 15:34:40;;;;;;;35.97;16.40;;;;;;;-0.18;93.53;100335.78;4987163;28;20072;-76
2022/12/10 15:37:16;;;;;;;31.48;15.68;;;;;;;-0.13;93.44;100335.69;5015474;28;20041;-75
2022/12/10 15:39:50;;;;;;;36.60;17.15;;;;;;;-0.10;93.03;100336.47;4996752;28;20088;-77
2022/12/10 15:42:34;;;;;;;41.20;17.75;;;;;;;-0.12;93.16;100339.97;4997594;28;20078;-76
2022/12/10 15:45:09;;;;;;;38.83;16.35;;;;;;;-0.15;93.24;100335.72;5014412;28;20532;-76
2022/12/10 15:47:38;;;;;;;35.97;16.38;;;;;;;-0.11;92.83;100332.19;4998532;28;20096;-77
2022/12/10 15:50:05;;;;;;;36.22;18.55;;;;;;;-0.19;92.97;100334.06;4982766;28;20077;-77
2022/12/10 15:52:34;;;;;;;40.80;16.70;;;;;;;-0.16;93.14;100336.59;5004181;28;20078;-76
2022/12/10 15:55:02;;;;;;;38.88;19.17;;;;;;;-0.15;93.06;100342.63;5009389;28;20119;-77
2022/12/10 15:57:34;;;;;;;42.75;18.25;;;;;;;-0.15;93.04;100346.06;5004050;28;20089;-77
2022/12/10 16:00:17;;;;;;;44.45;17.38;;;;;;;-0.12;93.38;100346.00;5021154;28;20294;-78
2022/12/10 16:02:51;;;;;;;44.42;18.67;;;;;;;-0.13;93.24;100340.88;5003429;28;20054;-76
2022/12/10 16:05:32;;;;;;;43.72;18.58;;;;;;;-0.12;93.11;100342.56;5013854;28;20065;-76
2022/12/10 16:08:24;;;;;;;38.65;17.25;;;;;;;-0.30;91.96;100341.19;4965644;28;20463;-76
2022/12/10 16:10:54;;;;;;;46.08;17.98;;;;;;;-0.30;92.92;100346.38;4997483;28;20137;-77
2022/12/10 16:13:25;;;;;;;43.70;18.58;;;;;;;-0.32;93.84;100337.75;5002344;28;20049;-77
2022/12/10 16:16:09;;;;;;;39.38;17.88;;;;;;;-0.32;93.83;100338.59;4995529;28;20522;-77
2022/12/10 16:18:37;;;;;;;47.65;19.42;;;;;;;-0.32;94.00;100342.94;4979495;28;20200;-77
2022/12/10 16:21:05;;;;;;;48.88;19.58;;;;;;;-0.29;94.12;100338.56;4962650;28;20145;-77
2022/12/10 16:23:33;;;;;;;41.50;17.85;;;;;;;-0.30;93.82;100347.22;4960722;28;20081;-77
2022/12/10 16:26:01;;;;;;;52.15;18.73;;;;;;;-0.23;93.88;100344.50;5010909;28;20080;-77
2022/12/10 16:28:28;;;;;;;48.45;19.60;;;;;;;-0.19;93.55;100339.22;5003128;28;20132;-77
2022/12/10 16:30:58;;;;;;;48.15;18.92;;;;;;;-0.16;93.08;100348.69;5017010;23;20046;-68
2022/12/10 16:33:26;;;;;;;48.17;19.73;;;;;;;-0.21;93.00;100345.34;5028951;28;20502;-68
2022/12/10 16:35:55;;;;;;;57.95;22.83;;;;;;;-0.18;92.91;100355.59;5040989;28;20496;-68
2022/12/10 16:38:23;;;;;;;50.53;20.02;;;;;;;-0.24;93.09;100351.41;5037399;28;20412;-68
2022/12/10 16:40:50;;;;;;;52.72;19.52;;;;;;;-0.25;93.36;100352.28;5036257;28;20086;-68
2022/12/10 16:43:23;;;;;;;49.15;19.85;;;;;;;-0.23;93.30;100345.34;5035833;28;20077;-68
2022/12/10 16:45:50;;;;;;;55.47;21.45;;;;;;;-0.27;93.55;100348.88;5025579;28;20045;-68
2022/12/10 16:48:18;;;;;;;56.65;23.13;;;;;;;-0.27;93.63;100344.56;5031189;28;20533;-68
2022/12/10 16:50:47;;;;;;;53.47;21.50;;;;;;;-0.23;93.30;100347.94;5039970;28;20141;-68
2022/12/10 16:53:17;;;;;;;61.08;21.33;;;;;;;-0.18;93.78;100353.00;5026488;28;20136;-68
2022/12/10 16:55:45;;;;;;;61.30;22.45;;;;;;;-0.16;93.26;100359.88;5022404;28;20157;-67
2022/12/10 16:58:16;;;;;;;60.30;21.42;;;;;;;-0.13;93.31;100353.81;5033012;28;20075;-67
2022/12/10 17:00:48;;;;;;;56.10;21.40;;;;;;;-0.21;93.59;100358.28;5033048;28;20528;-67
2022/12/10 17:03:28;;;;;;;56.70;20.90;;;;;;;-0.24;93.21;100364.34;5009505;28;20065;-68
2022/12/10 17:05:58;;;;;;;62.13;23.50;;;;;;;-0.30;93.97;100360.16;5026764;28;20145;-68
2022/12/10 17:08:26;;;;;;;61.03;23.50;;;;;;;-0.30;93.47;100354.13;5030850;28;20079;-68
2022/12/10 17:13:41;;;;;;;60.40;22.50;;;;;;;-0.35;93.43;100355.94;5022969;28;20152;-68
2022/12/10 17:16:18;;;;;;;60.83;21.13;;;;;;;-0.41;93.69;100346.53;5037973;28;20057;-67
2022/12/10 17:18:46;;;;;;;54.28;20.63;;;;;;;-0.37;93.70;100350.78;5028925;28;20129;-67
2022/12/10 17:21:13;;;;;;;63.55;23.73;;;;;;;-0.34;93.79;100361.06;5029981;28;20072;-68
2022/12/10 17:23:40;;;;;;;57.53;22.02;;;;;;;-0.39;93.58;100356.88;5020994;28;20145;-68
2022/12/10 17:26:15;;;;;;;57.33;23.98;;;;;;;-0.40;93.60;100360.34;5026943;28;20053;-67
2022/12/10 17:28:43;;;;;;;57.30;22.38;;;;;;;-0.36;93.91;100359.38;5029084;28;20103;-67
2022/12/10 17:31:10;;;;;;;53.28;22.15;;;;;;;-0.37;93.75;100355.09;5028021;28;20490;-67
2022/12/10 17:33:37;;;;;;;52.85;20.90;;;;;;;-0.39;93.56;100357.72;5023449;28;20048;-67
2022/12/10 17:36:05;;;;;;;56.67;21.83;;;;;;;-0.35;93.73;100355.94;5030191;28;20045;-68
2022/12/10 17:38:32;;;;;;;53.40;20.20;;;;;;;-0.34;93.75;100362.81;5029182;28;20132;-68
2022/12/10 17:40:59;;;;;;;57.70;22.45;;;;;;;-0.31;94.20;100363.63;5025821;28;20132;-67
2022/12/10 17:43:26;;;;;;;61.17;23.50;;;;;;;-0.32;94.23;100354.13;5019761;28;20129;-67
2022/12/10 17:45:55;;;;;;;48.90;21.33;;;;;;;-0.28;94.11;100362.69;5025530;28;20133;-68
2022/12/10 17:48:23;;;;;;;59.47;23.15;;;;;;;-0.27;94.04;100361.81;5011936;28;20140;-68
2022/12/10 17:50:50;;;;;;;56.03;21.65;;;;;;;-0.22;93.95;100360.00;5030306;28;20508;-67
2022/12/10 17:53:17;;;;;;;55.45;22.27;;;;;;;-0.18;93.40;100361.66;5029502;28;20057;-68
2022/12/10 17:55:52;;;;;;;55.35;21.38;;;;;;;-0.19;93.89;100361.66;5019601;28;20132;-67
2022/12/10 17:58:20;;;;;;;58.35;22.20;;;;;;;-0.20;93.48;100367.72;5030896;28;20071;-67
2022/12/10 18:00:48;;;;;;;46.92;19.80;;;;;;;-0.19;93.47;100361.66;5029812;28;20517;-67
2022/12/10 18:03:16;;;;;;;58.58;22.85;;;;;;;-0.20;93.47;100360.81;5011710;28;20061;-67
2022/12/10 18:05:43;;;;;;;58.08;22.50;;;;;;;-0.23;93.60;100358.28;5025271;28;20145;-67
2022/12/10 18:08:13;;;;;;;61.42;24.52;;;;;;;-0.22;93.55;100359.16;5028868;28;20057;-67
2022/12/10 18:10:40;;;;;;;53.08;22.90;;;;;;;-0.23;93.13;100366.03;5028087;28;20122;-67
2022/12/10 18:13:07;;;;;;;60.35;22.85;;;;;;;-0.21;93.41;100366.88;5023176;28;20056;-68
2022/12/10 18:15:35;;;;;;;57.88;23.17;;;;;;;-0.22;93.02;100370.34;5008302;28;20054;-68
2022/12/10 18:18:03;;;;;;;59.80;24.52;;;;;;;-0.21;93.37;100371.19;5025042;28;20092;-68
2022/12/10 18:20:32;;;;;;;56.92;21.80;;;;;;;-0.20;92.94;100368.56;5008712;28;20260;-68
2022/12/10 18:23:00;;;;;;;53.67;22.48;;;;;;;-0.18;93.43;100361.66;5043053;28;20547;-68
2022/12/10 18:25:28;;;;;;;51.45;21.45;;;;;;;-0.23;93.12;100372.94;5014833;28;20156;-68
2022/12/10 18:28:04;;;;;;;51.67;23.25;;;;;;;-0.27;93.22;100375.63;5039168;28;20148;-68
2022/12/10 18:30:31;;;;;;;53.00;23.00;;;;;;;-0.27;93.40;100373.03;5036843;28;20144;-67
2022/12/10 18:32:58;;;;;;;46.88;21.30;;;;;;;-0.22;93.76;100380.69;5038287;28;20507;-67
2022/12/10 18:35:29;;;;;;;51.42;23.10;;;;;;;-0.18;93.01;100372.00;5036456;28;20144;-67
2022/12/10 18:37:56;;;;;;;54.70;22.02;;;;;;;-0.19;93.04;100380.63;5037817;28;20477;-67
2022/12/10 18:40:23;;;;;;;61.20;22.33;;;;;;;-0.19;93.06;100380.63;5036288;28;20152;-66
2022/12/10 18:42:50;;;;;;;60.78;26.08;;;;;;;-0.18;92.38;100371.13;5035539;28;20608;-66
2022/12/10 18:45:18;;;;;;;53.00;22.00;;;;;;;-0.20;92.57;100384.09;5035389;28;20132;-67
2022/12/10 18:47:46;;;;;;;53.55;21.30;;;;;;;-0.29;91.99;100379.94;5035706;28;20063;-66
2022/12/10 18:50:23;;;;;;;56.38;22.00;;;;;;;-0.36;92.79;100383.53;5037578;28;20136;-66
2022/12/10 18:52:51;;;;;;;51.55;22.88;;;;;;;-0.37;92.78;100379.22;5036772;28;20103;-66
2022/12/10 18:55:20;;;;;;;49.35;22.17;;;;;;;-0.32;93.54;100384.31;5042437;28;20117;-66
2022/12/10 18:57:48;;;;;;;52.95;22.10;;;;;;;-0.32;93.26;100384.31;5042921;28;20148;-66
2022/12/10 19:00:28;;;;;;;47.25;22.52;;;;;;;-0.40;93.23;100384.47;5040604;28;20495;-67
2022/12/10 19:02:55;;;;;;;50.17;21.98;;;;;;;-0.38;93.61;100385.28;5036880;28;20057;-66
2022/12/10 19:05:24;;;;;;;38.50;19.42;;;;;;;-0.30;94.04;100385.16;5037001;28;20465;-66
2022/12/10 19:07:51;;;;;;;47.50;21.10;;;;;;;-0.26;93.75;100390.25;5041968;28;20057;-67
2022/12/10 19:18:25;;;;;;;53.72;21.70;;;;;;;-0.28;92.43;100385.97;5034410;28;20556;-67
2022/12/10 19:20:52;;;;;;;41.65;20.10;;;;;;;-0.27;92.13;100388.56;5024815;28;20053;-68
2022/12/10 19:23:23;;;;;;;49.33;20.75;;;;;;;-0.23;92.95;100383.28;5026437;28;20136;-66
2022/12/10 19:25:50;;;;;;;54.92;24.33;;;;;;;-0.25;92.63;100391.09;5030105;28;20126;-66
2022/12/10 19:28:18;;;;;;;51.78;21.95;;;;;;;-0.29;92.73;100384.28;5041800;28;20123;-66
2022/12/10 20:35:18;;;;;;;38.03;21.95;;;;;;;-0.72;92.12;100403.13;5026678;28;20060;-66
2022/12/10 23:39:31;;;;;;;19.20;13.18;;;;;;;-1.09;88.30;100358.91;5046326;28;20102;-61
